Crimora, Virginia
Current Conditions -  °F | °C
As of 3:15 PM on Wednesday 26 Nov 2014 (Local Time) from KW13 Reporting Station
Overcast Overcast  
Wind Chill: 32°   Ceiling: 400
Heat Index: 32°   Visibility: 1.5mi
Dew Point: 32°   Wind: 3mph
Humidity: 100%   Direction: 310°NW
Pressure: 29.95"   Gusts: NA
Location:  38.15°N, 78.85°W
Report Text: KW13 262015Z AUTO 31003KT 1 1/2SM OVC004 00/00 A2995 RMK AO1 P0001 T00000000
Loading
Personal Weather Stations






























Interactive Weather Map New forecast layout! Learn more

10-Day Weather Forecast

Advertisements
Track Severe Weather on mobile